Time;durP1;ratioP1;P1;durP2;ratioP2;P2;SDS_P1;SDS_P2;PMS_P1;PMS_P2;Temp;Humidity;BMP_temperature;BMP_pressure;BME280_temperature;BME280_humidity;BME280_pressure;Samples;Min_cycle;Max_cycle;Signal;HPM_P1;HPM_P2
2022/05/13 00:00:49;;;;;;;2.83;1.38;;;16.60;95.30;;;;;;4993542;28;20568;-50
2022/05/13 00:03:15;;;;;;;4.07;1.75;;;16.50;95.20;;;;;;4993296;28;20416;-48
2022/05/13 00:05:40;;;;;;;7.57;2.40;;;16.50;95.50;;;;;;4993330;28;20027;-49
2022/05/13 00:08:06;;;;;;;3.53;1.40;;;16.50;95.40;;;;;;4992958;28;20057;-42
2022/05/13 00:10:32;;;;;;;6.50;1.52;;;16.50;95.60;;;;;;4993143;28;20109;-50
2022/05/13 00:12:58;;;;;;;3.95;1.65;;;16.50;95.20;;;;;;4993138;28;20065;-45
2022/05/13 00:15:26;;;;;;;4.15;1.88;;;16.50;95.10;;;;;;4992897;28;20022;-39
2022/05/13 00:17:54;;;;;;;8.65;1.80;;;16.50;95.20;;;;;;4992663;28;20398;-41
2022/05/13 00:20:21;;;;;;;5.75;1.30;;;16.50;95.30;;;;;;4993141;28;20014;-45
2022/05/13 00:22:49;;;;;;;5.20;2.08;;;16.60;95.20;;;;;;4993170;28;20022;-46
2022/05/13 00:27:47;;;;;;;2.88;1.90;;;16.60;95.30;;;;;;4895404;23;20119;-49
2022/05/13 00:30:15;;;;;;;2.85;1.30;;;16.60;95.30;;;;;;4876293;29;20028;-44
2022/05/13 00:32:41;;;;;;;6.85;2.08;;;16.50;95.80;;;;;;4859100;29;20025;-44
2022/05/13 00:35:07;;;;;;;2.70;1.30;;;16.50;96.10;;;;;;4875793;29;20059;-48
2022/05/13 00:37:33;;;;;;;3.65;1.85;;;16.40;96.50;;;;;;4875231;29;20505;-47
2022/05/13 00:39:59;;;;;;;6.60;1.50;;;16.40;96.70;;;;;;4874572;29;20088;-44
2022/05/13 00:42:25;;;;;;;4.18;1.60;;;16.40;96.80;;;;;;4875627;29;20075;-44
2022/05/13 00:44:50;;;;;;;5.07;1.52;;;16.40;96.80;;;;;;4875746;29;20032;-44
2022/05/13 00:47:16;;;;;;;5.70;1.77;;;16.40;96.80;;;;;;4875235;29;20432;-44
2022/05/13 00:49:43;;;;;;;9.38;1.65;;;16.30;96.60;;;;;;4875727;29;20033;-45
2022/05/13 00:52:10;;;;;;;5.38;1.88;;;16.20;96.40;;;;;;4875495;29;20508;-44
2022/05/13 00:54:37;;;;;;;3.13;1.27;;;16.10;97.10;;;;;;4875672;29;20523;-45
2022/05/13 00:57:03;;;;;;;8.95;1.50;;;16.00;97.40;;;;;;4874996;29;20486;-45
2022/05/13 00:59:33;;;;;;;3.97;1.67;;;16.00;97.80;;;;;;4875556;29;20040;-45
2022/05/13 01:01:58;;;;;;;3.40;1.70;;;16.00;97.90;;;;;;4875713;29;20452;-43
2022/05/13 01:04:25;;;;;;;5.35;1.63;;;16.00;97.60;;;;;;4875404;29;20036;-46
2022/05/13 01:06:54;;;;;;;4.85;1.63;;;15.90;97.70;;;;;;4874881;29;20521;-43
2022/05/13 01:09:21;;;;;;;7.05;1.35;;;15.80;97.90;;;;;;4875462;29;20031;-47
2022/05/13 01:11:52;;;;;;;6.32;1.60;;;15.80;98.20;;;;;;4875234;29;20056;-43
2022/05/13 01:14:25;;;;;;;6.75;2.03;;;15.80;98.50;;;;;;4875276;29;20032;-43
2022/05/13 01:19:35;;;;;;;3.70;1.20;;;15.80;98.60;;;;;;4875585;29;20031;-47
2022/05/13 01:22:17;;;;;;;4.25;1.50;;;15.70;98.70;;;;;;4875182;29;20033;-45
2022/05/13 01:24:44;;;;;;;5.88;1.65;;;15.70;98.80;;;;;;4875255;29;20025;-45
2022/05/13 01:27:10;;;;;;;7.05;1.73;;;15.70;98.80;;;;;;4874501;29;20448;-47
2022/05/13 01:29:36;;;;;;;2.90;1.55;;;15.70;98.90;;;;;;4875022;29;20096;-46
2022/05/13 01:32:01;;;;;;;3.80;1.40;;;15.70;98.90;;;;;;4875427;29;20025;-47
2022/05/13 01:34:27;;;;;;;4.00;1.60;;;15.70;99.20;;;;;;4874985;29;20034;-44
2022/05/13 01:36:52;;;;;;;4.40;1.77;;;15.70;99.20;;;;;;4874483;29;20047;-43
2022/05/13 01:39:18;;;;;;;2.60;1.23;;;15.60;99.20;;;;;;4875055;29;20037;-46
2022/05/13 01:41:43;;;;;;;2.25;1.50;;;15.60;99.40;;;;;;4875215;29;20025;-45
2022/05/13 01:44:09;;;;;;;5.15;2.70;;;15.50;99.40;;;;;;4874485;29;20105;-45
2022/05/13 01:46:35;;;;;;;6.68;1.92;;;15.50;99.50;;;;;;4874723;29;20095;-45
2022/05/13 01:49:01;;;;;;;10.57;2.55;;;15.30;99.80;;;;;;4857853;29;20029;-46
2022/05/13 01:51:26;;;;;;;10.55;1.55;;;15.20;99.90;;;;;;4877447;29;20447;-45
2022/05/13 01:53:52;;;;;;;4.78;1.60;;;15.20;99.90;;;;;;4878090;29;20026;-48
2022/05/13 01:56:18;;;;;;;3.97;1.80;;;15.10;99.90;;;;;;4878332;29;20052;-45
2022/05/13 01:58:44;;;;;;;8.90;1.90;;;15.10;99.90;;;;;;4878136;29;20037;-44
2022/05/13 02:01:11;;;;;;;2.58;1.90;;;15.10;99.90;;;;;;4878318;29;20437;-44
2022/05/13 02:03:45;;;;;;;3.40;1.60;;;15.00;99.90;;;;;;4877995;29;20028;-45
2022/05/13 02:06:18;;;;;;;5.38;1.80;;;15.00;99.90;;;;;;4877812;29;20029;-43
2022/05/13 02:08:44;;;;;;;4.15;1.98;;;15.00;99.90;;;;;;4877652;29;20489;-46
2022/05/13 02:11:10;;;;;;;3.63;1.85;;;15.00;99.90;;;;;;4878027;29;20044;-44
2022/05/13 02:13:37;;;;;;;4.80;1.88;;;15.00;99.90;;;;;;4877995;29;20485;-44
2022/05/13 02:16:03;;;;;;;4.55;1.60;;;15.00;99.90;;;;;;4877850;29;20056;-42
2022/05/13 02:18:29;;;;;;;5.68;1.88;;;14.90;99.90;;;;;;4877516;29;20556;-42
2022/05/13 02:20:55;;;;;;;3.28;1.83;;;14.90;99.90;;;;;;4877865;29;20113;-44
2022/05/13 02:23:22;;;;;;;4.40;1.80;;;14.80;99.90;;;;;;4877616;29;20104;-45
2022/05/13 02:25:49;;;;;;;3.20;1.60;;;14.90;99.90;;;;;;4877311;29;20107;-44
2022/05/13 02:28:15;;;;;;;6.75;1.80;;;14.80;99.90;;;;;;4877371;29;20025;-44
2022/05/13 02:30:40;;;;;;;2.35;2.13;;;14.80;99.90;;;;;;4877649;29;20466;-43
2022/05/13 02:33:06;;;;;;;3.72;1.77;;;14.80;99.90;;;;;;4876373;29;20030;-47
2022/05/13 02:35:33;;;;;;;4.18;1.92;;;14.80;99.90;;;;;;4877510;29;20025;-43
2022/05/13 02:37:59;;;;;;;5.55;2.05;;;14.80;99.90;;;;;;4877175;29;20029;-43
2022/05/13 02:41:11;;;;;;;6.30;2.10;;;14.80;99.90;;;;;;4876615;29;20039;-43
2022/05/13 02:43:12;;;;;;;2.88;2.10;;;14.80;99.90;;;;;;4877014;29;20026;-43
2022/05/13 02:45:38;;;;;;;7.55;2.10;;;14.70;99.90;;;;;;4877291;29;20017;-43
2022/05/13 02:48:04;;;;;;;4.47;1.92;;;14.60;99.90;;;;;;4876971;29;20112;-44
2022/05/13 02:50:29;;;;;;;6.80;2.17;;;14.60;99.90;;;;;;4877165;29;20112;-44
2022/05/13 02:52:55;;;;;;;6.25;2.20;;;14.60;99.90;;;;;;4877329;29;20044;-44
2022/05/13 02:55:21;;;;;;;5.88;1.88;;;14.50;99.90;;;;;;4877349;29;20033;-44
2022/05/13 02:57:47;;;;;;;4.00;1.98;;;14.40;99.90;;;;;;4876785;29;20037;-43
2022/05/13 03:00:13;;;;;;;3.25;1.90;;;14.40;99.90;;;;;;4877215;29;20048;-44
2022/05/13 03:02:39;;;;;;;3.03;1.98;;;14.40;99.90;;;;;;4876264;29;20029;-44
2022/05/13 03:05:06;;;;;;;7.47;2.70;;;14.40;99.90;;;;;;4877387;29;20036;-46
2022/05/13 03:07:32;;;;;;;4.72;2.55;;;14.40;99.90;;;;;;4860097;29;20501;-43
2022/05/13 03:09:57;;;;;;;8.77;2.47;;;14.40;99.90;;;;;;4877119;29;20507;-46
2022/05/13 03:12:23;;;;;;;6.00;3.13;;;14.40;99.90;;;;;;4860510;29;20120;-46
2022/05/13 03:14:48;;;;;;;5.68;2.15;;;14.40;99.90;;;;;;4877209;29;20033;-47
2022/05/13 03:17:14;;;;;;;5.10;2.10;;;14.40;99.90;;;;;;4876403;29;20405;-44
2022/05/13 03:19:40;;;;;;;4.72;2.13;;;14.40;99.90;;;;;;4876860;29;20032;-44
2022/05/13 03:22:06;;;;;;;3.67;1.73;;;14.40;99.90;;;;;;4876950;29;20044;-46
2022/05/13 03:24:33;;;;;;;7.15;2.25;;;14.40;99.90;;;;;;4877084;29;20128;-43
2022/05/13 03:26:58;;;;;;;5.63;2.30;;;14.40;99.90;;;;;;4876070;29;20056;-44
2022/05/13 03:29:24;;;;;;;2.92;2.00;;;14.40;99.90;;;;;;4876708;29;20555;-43
2022/05/13 03:31:50;;;;;;;6.50;2.35;;;14.30;99.90;;;;;;4876720;29;20039;-49
2022/05/13 03:34:16;;;;;;;11.73;2.40;;;14.30;99.90;;;;;;4876577;29;20041;-43
2022/05/13 03:36:41;;;;;;;6.30;2.42;;;14.20;99.90;;;;;;4876449;29;20039;-43
2022/05/13 03:39:07;;;;;;;7.70;2.00;;;14.20;99.90;;;;;;4876436;29;20112;-46
2022/05/13 03:41:33;;;;;;;5.75;2.15;;;14.20;99.90;;;;;;4876583;29;20021;-44
2022/05/13 03:43:59;;;;;;;6.88;2.25;;;14.10;99.90;;;;;;4876381;29;20458;-44
2022/05/13 03:46:24;;;;;;;2.33;1.92;;;14.10;99.90;;;;;;4876317;29;20061;-44
2022/05/13 03:48:50;;;;;;;3.53;2.30;;;14.10;99.90;;;;;;4876615;29;20107;-43
2022/05/13 03:51:16;;;;;;;4.93;2.75;;;14.10;99.90;;;;;;4876522;29;20037;-45
2022/05/13 03:53:42;;;;;;;2.53;2.33;;;14.10;99.90;;;;;;4876516;29;20100;-44
2022/05/13 03:56:07;;;;;;;4.35;2.83;;;14.10;99.90;;;;;;4859777;29;20124;-44
2022/05/13 03:58:33;;;;;;;4.43;2.30;;;14.10;99.90;;;;;;4876019;29;20405;-44
2022/05/13 04:01:00;;;;;;;4.32;2.30;;;14.10;99.90;;;;;;4876310;29;20032;-44
2022/05/13 04:03:26;;;;;;;4.47;2.10;;;14.20;99.90;;;;;;4876449;29;20034;-47
2022/05/13 04:11:20;;;;;;;7.22;2.20;;;14.20;99.90;;;;;;4876244;29;20040;-47
2022/05/13 04:16:30;;;;;;;4.38;2.15;;;14.20;99.90;;;;;;4876647;29;20665;-44
2022/05/13 04:18:55;;;;;;;8.75;3.50;;;14.20;99.90;;;;;;4876263;29;20112;-47
2022/05/13 04:21:32;;;;;;;8.65;2.42;;;14.10;99.90;;;;;;4876537;29;20449;-45
2022/05/13 04:24:01;;;;;;;9.38;2.63;;;14.10;99.90;;;;;;4876554;29;20029;-44
2022/05/13 04:26:27;;;;;;;6.97;2.40;;;14.10;99.90;;;;;;4876277;29;20096;-46
2022/05/13 04:28:54;;;;;;;4.82;2.20;;;14.10;99.90;;;;;;4875705;29;20469;-44
2022/05/13 04:31:23;;;;;;;6.88;2.47;;;14.00;99.90;;;;;;4875858;29;20125;-44
2022/05/13 04:33:49;;;;;;;4.13;2.38;;;13.90;99.90;;;;;;4875976;29;20501;-44
2022/05/13 04:36:15;;;;;;;2.03;1.92;;;13.90;99.90;;;;;;4875637;29;20698;-46
2022/05/13 04:38:41;;;;;;;5.35;2.88;;;13.90;99.90;;;;;;4875674;29;20029;-46
2022/05/13 04:43:52;;;;;;;8.85;3.03;;;13.90;99.90;;;;;;4875529;29;20079;-43
2022/05/13 04:46:17;;;;;;;3.80;2.63;;;13.90;99.90;;;;;;4875363;29;20028;-44
2022/05/13 04:48:43;;;;;;;6.13;2.95;;;13.90;99.90;;;;;;4875609;29;20022;-48
2022/05/13 04:51:10;;;;;;;5.70;2.83;;;13.80;99.90;;;;;;4875944;29;20029;-46
2022/05/13 04:53:37;;;;;;;7.18;2.47;;;13.90;99.90;;;;;;4875849;29;20050;-44
2022/05/13 04:56:05;;;;;;;4.50;2.40;;;13.90;99.90;;;;;;4875348;29;20113;-45
2022/05/13 04:58:31;;;;;;;6.50;2.42;;;14.10;99.90;;;;;;4875076;29;20382;-44
2022/05/13 05:00:59;;;;;;;4.95;2.33;;;14.30;99.90;;;;;;4875439;29;20032;-46
2022/05/13 05:03:29;;;;;;;7.65;2.33;;;14.50;99.90;;;;;;4875408;29;20108;-46
2022/05/13 05:05:56;;;;;;;6.22;1.88;;;14.60;99.90;;;;;;4875551;28;20029;-45
2022/05/13 05:08:22;;;;;;;6.05;2.50;;;14.90;99.90;;;;;;4875264;29;20040;-48
2022/05/13 05:10:47;;;;;;;5.85;2.50;;;15.10;99.90;;;;;;4875410;29;20116;-48
2022/05/13 05:13:22;;;;;;;7.63;2.45;;;15.20;99.90;;;;;;4875295;29;20116;-48
2022/05/13 05:15:49;;;;;;;6.75;2.53;;;15.20;99.90;;;;;;4875151;29;20029;-47
2022/05/13 05:18:15;;;;;;;8.77;2.33;;;15.40;99.90;;;;;;4874898;29;20120;-43
2022/05/13 05:20:42;;;;;;;8.27;2.28;;;15.40;99.90;;;;;;4875320;29;20026;-45
2022/05/13 05:23:18;;;;;;;5.10;2.20;;;15.20;99.90;;;;;;4875232;29;20438;-49
2022/05/13 05:25:44;;;;;;;8.02;2.38;;;15.10;99.90;;;;;;4879140;28;20029;-48
2022/05/13 05:28:10;;;;;;;5.78;1.92;;;15.00;99.90;;;;;;4881261;29;20056;-46
2022/05/13 05:30:37;;;;;;;7.70;1.92;;;14.90;99.90;;;;;;4881340;29;20100;-46
2022/05/13 05:33:02;;;;;;;7.45;2.00;;;14.90;99.90;;;;;;4881510;29;20029;-46
2022/05/13 05:35:29;;;;;;;5.13;2.42;;;14.90;99.90;;;;;;4881167;29;20094;-46
2022/05/13 05:37:55;;;;;;;5.82;1.98;;;14.80;99.90;;;;;;4880816;29;20036;-47
2022/05/13 05:40:20;;;;;;;3.17;2.10;;;14.80;99.90;;;;;;4881464;29;20033;-43
2022/05/13 05:42:48;;;;;;;6.47;2.15;;;14.70;99.90;;;;;;4881015;29;20497;-46
2022/05/13 05:45:16;;;;;;;9.95;2.70;;;14.70;99.90;;;;;;4877915;29;20063;-47
2022/05/13 05:47:41;;;;;;;5.38;2.45;;;14.90;99.90;;;;;;4880099;29;20029;-46
2022/05/13 05:50:10;;;;;;;8.00;2.50;;;15.10;99.90;;;;;;4889840;29;20052;-50
2022/05/13 05:52:35;;;;;;;4.38;2.28;;;15.40;99.90;;;;;;4881406;29;20405;-47
2022/05/13 05:58:04;;;;;;;7.60;2.30;;;15.70;99.90;;;;;;4885553;29;20056;-49
2022/05/13 06:00:32;;;;;;;4.18;1.67;;;15.80;99.90;;;;;;4880924;29;20088;-50
2022/05/13 06:02:58;;;;;;;10.20;2.40;;;15.90;99.90;;;;;;4880121;29;20057;-50
2022/05/13 06:05:25;;;;;;;4.03;2.22;;;16.00;99.60;;;;;;4880533;29;20429;-45
2022/05/13 06:07:51;;;;;;;6.32;1.70;;;16.00;99.70;;;;;;4879273;29;20507;-47
2022/05/13 06:10:18;;;;;;;4.75;2.47;;;16.00;99.90;;;;;;4890240;29;20103;-46
2022/05/13 06:12:43;;;;;;;7.78;2.08;;;16.00;99.40;;;;;;4880940;29;20131;-46
2022/05/13 06:15:11;;;;;;;4.72;2.00;;;16.10;99.80;;;;;;4944859;28;20063;-49
2022/05/13 06:17:43;;;;;;;7.13;2.00;;;16.20;99.70;;;;;;4880105;29;20024;-49
2022/05/13 06:20:09;;;;;;;8.15;2.53;;;16.40;99.50;;;;;;4880223;29;20021;-46
2022/05/13 06:22:34;;;;;;;8.68;2.25;;;16.50;98.90;;;;;;4894316;29;20032;-47
2022/05/13 06:25:02;;;;;;;7.97;1.83;;;16.60;97.80;;;;;;4898191;29;20037;-47
2022/05/13 06:27:28;;;;;;;3.72;1.55;;;16.80;97.30;;;;;;4899067;23;20176;-47
2022/05/13 06:29:53;;;;;;;19.10;2.47;;;16.90;96.70;;;;;;4944637;28;20554;-50
2022/05/13 06:32:19;;;;;;;4.15;1.50;;;17.10;96.30;;;;;;4880685;29;20476;-52
2022/05/13 06:34:44;;;;;;;5.40;1.75;;;17.30;95.70;;;;;;4879888;29;20120;-47
2022/05/13 06:37:10;;;;;;;4.22;1.38;;;17.50;94.90;;;;;;4887689;29;20051;-46
2022/05/13 06:39:35;;;;;;;6.63;2.10;;;17.70;94.40;;;;;;4894683;29;20028;-48
2022/05/13 06:42:01;;;;;;;7.65;1.65;;;17.70;94.30;;;;;;4895580;29;20064;-44
2022/05/13 06:44:26;;;;;;;5.30;1.15;;;17.80;93.70;;;;;;4911550;29;20112;-48
2022/05/13 06:46:52;;;;;;;3.60;1.27;;;17.70;92.70;;;;;;4903760;29;20119;-45
2022/05/13 06:49:17;;;;;;;13.13;3.00;;;17.80;92.90;;;;;;4895396;29;20048;-40
2022/05/13 06:51:43;;;;;;;4.78;1.20;;;17.90;93.00;;;;;;4895701;29;20033;-46
2022/05/13 06:54:10;;;;;;;7.25;1.73;;;17.90;92.40;;;;;;4898436;29;20028;-45
2022/05/13 06:56:38;;;;;;;4.25;1.90;;;17.90;92.20;;;;;;4914503;29;20179;-45
2022/05/13 06:59:04;;;;;;;3.83;1.30;;;17.90;92.20;;;;;;4906219;29;20024;-41
2022/05/13 07:01:30;;;;;;;5.22;1.55;;;18.10;92.30;;;;;;4904502;29;20032;-50
2022/05/13 07:03:56;;;;;;;4.47;1.38;;;18.30;92.30;;;;;;4913530;29;20086;-54
2022/05/13 07:06:21;;;;;;;3.72;1.42;;;18.40;92.10;;;;;;4878021;29;20036;-49
2022/05/13 07:08:50;;;;;;;10.23;1.80;;;18.50;92.00;;;;;;4895413;29;20029;-49
2022/05/13 07:11:17;;;;;;;3.55;1.85;;;18.60;91.70;;;;;;4895278;29;20035;-48
2022/05/13 07:13:43;;;;;;;4.88;1.55;;;18.60;91.70;;;;;;4895724;29;20434;-49
2022/05/13 07:16:09;;;;;;;4.40;1.40;;;18.60;91.70;;;;;;4895292;29;20112;-52
2022/05/13 07:18:36;;;;;;;5.82;1.52;;;18.50;91.60;;;;;;4895129;29;20489;-50
2022/05/13 07:21:02;;;;;;;4.70;1.45;;;18.60;91.30;;;;;;4894924;29;20032;-51
2022/05/13 07:23:29;;;;;;;2.65;1.40;;;18.60;91.30;;;;;;4895423;29;20060;-50
2022/05/13 07:25:55;;;;;;;4.80;1.55;;;18.60;90.90;;;;;;4895220;29;20378;-48
2022/05/13 07:28:21;;;;;;;6.93;1.42;;;18.60;91.00;;;;;;4895106;29;20047;-43
2022/05/13 07:30:47;;;;;;;5.10;2.03;;;18.70;90.50;;;;;;4895212;29;20029;-52
2022/05/13 07:33:13;;;;;;;3.53;1.40;;;18.80;90.50;;;;;;4895357;29;20024;-46
2022/05/13 07:35:38;;;;;;;9.30;2.15;;;18.90;90.60;;;;;;4893793;29;20098;-52
2022/05/13 07:38:06;;;;;;;9.82;1.88;;;18.90;90.70;;;;;;4894737;29;20028;-44
2022/05/13 07:43:16;;;;;;;4.70;2.08;;;18.90;90.50;;;;;;4895525;29;20253;-50
2022/05/13 07:45:42;;;;;;;7.68;1.60;;;18.90;90.30;;;;;;4895080;29;20406;-49
2022/05/13 07:48:07;;;;;;;4.93;1.58;;;19.10;90.30;;;;;;4894090;29;20404;-48
2022/05/13 07:50:33;;;;;;;8.55;2.03;;;19.30;89.60;;;;;;4895063;29;20094;-50
2022/05/13 07:52:59;;;;;;;6.60;2.10;;;19.60;87.70;;;;;;4895016;29;20047;-47
2022/05/13 07:55:25;;;;;;;2.38;1.42;;;19.90;86.90;;;;;;4893867;29;20404;-51
2022/05/13 07:57:51;;;;;;;6.13;1.42;;;20.50;86.70;;;;;;4894450;29;20068;-49
2022/05/13 08:00:25;;;;;;;4.55;1.30;;;21.60;81.90;;;;;;4894958;29;20500;-44
2022/05/13 08:02:56;;;;;;;4.40;1.30;;;22.60;77.80;;;;;;4894862;29;20025;-49
2022/05/13 08:05:22;;;;;;;6.03;1.30;;;23.70;74.40;;;;;;4894821;29;20025;-53
2022/05/13 08:07:48;;;;;;;4.50;1.13;;;24.20;71.50;;;;;;4894366;29;20390;-53
2022/05/13 08:10:14;;;;;;;6.22;1.13;;;24.70;70.50;;;;;;4894714;29;20039;-51
2022/05/13 08:12:40;;;;;;;4.50;1.20;;;25.40;69.10;;;;;;4894696;29;20048;-49
2022/05/13 08:15:06;;;;;;;1.55;0.80;;;25.90;66.80;;;;;;4894649;29;20054;-46
2022/05/13 08:17:35;;;;;;;5.65;1.33;;;26.10;66.20;;;;;;4893961;29;20575;-49
2022/05/13 08:20:01;;;;;;;4.60;1.17;;;26.60;64.90;;;;;;4893185;29;20455;-51
2022/05/13 08:22:26;;;;;;;6.82;1.40;;;27.20;63.60;;;;;;4893919;29;20068;-52
2022/05/13 08:24:52;;;;;;;3.53;0.80;;;27.90;63.10;;;;;;4894472;29;20045;-48
2022/05/13 08:27:17;;;;;;;4.85;1.08;;;27.60;62.20;;;;;;4893900;29;20045;-52
2022/05/13 08:29:43;;;;;;;7.32;1.45;;;27.40;61.60;;;;;;4894572;29;20028;-51
2022/05/13 08:32:09;;;;;;;2.97;1.10;;;27.10;61.00;;;;;;4894800;29;20032;-53
2022/05/13 08:34:34;;;;;;;6.93;1.40;;;26.80;62.30;;;;;;4894415;29;20511;-55
2022/05/13 08:37:00;;;;;;;7.50;1.30;;;26.40;63.40;;;;;;4895358;29;20024;-44
2022/05/13 08:39:25;;;;;;;6.15;1.40;;;25.80;64.50;;;;;;4894316;29;20035;-49
2022/05/13 08:42:08;;;;;;;8.27;3.28;;;25.20;64.60;;;;;;4894103;29;20021;-55
2022/05/13 08:44:33;;;;;;;5.40;1.88;;;24.30;66.00;;;;;;4894403;29;20021;-50
2022/05/13 08:47:21;;;;;;;8.65;1.10;;;24.10;66.30;;;;;;4893801;29;20084;-44
2022/05/13 08:49:51;;;;;;;3.63;1.05;;;23.70;65.30;;;;;;4894291;29;20496;-44
2022/05/13 08:55:32;;;;;;;5.72;1.15;;;23.00;67.00;;;;;;4894222;29;20039;-44
2022/05/13 08:58:02;;;;;;;3.15;0.95;;;22.50;68.00;;;;;;4893537;29;20036;-47
2022/05/13 09:00:55;;;;;;;3.58;1.20;;;22.30;68.10;;;;;;4892930;29;20025;-50
2022/05/13 09:03:47;;;;;;;4.95;1.00;;;21.90;68.50;;;;;;4891575;29;20489;-48
2022/05/13 09:06:24;;;;;;;6.95;1.38;;;21.70;69.50;;;;;;4892652;29;20032;-49
2022/05/13 09:08:49;;;;;;;7.03;1.10;;;21.60;69.60;;;;;;4892369;28;20441;-48
2022/05/13 09:11:50;;;;;;;5.75;1.10;;;21.60;69.90;;;;;;4892292;29;20029;-48
2022/05/13 09:14:33;;;;;;;4.63;1.17;;;21.60;69.70;;;;;;4893736;29;20543;-48
2022/05/13 09:17:32;;;;;;;6.55;1.63;;;21.90;70.20;;;;;;4893125;29;20039;-51
2022/05/13 09:20:13;;;;;;;2.72;1.08;;;21.90;69.30;;;;;;4894053;29;20100;-48
2022/05/13 09:22:40;;;;;;;3.95;1.23;;;21.90;67.60;;;;;;4891850;29;20052;-47
2022/05/13 09:25:07;;;;;;;2.63;1.20;;;21.80;66.90;;;;;;4958294;28;20025;-48
2022/05/13 09:27:47;;;;;;;6.25;1.65;;;21.90;67.50;;;;;;4893173;29;20044;-43
2022/05/13 09:30:18;;;;;;;3.25;1.15;;;22.10;66.40;;;;;;4893891;29;20052;-48
2022/05/13 09:32:44;;;;;;;2.38;1.10;;;22.20;66.20;;;;;;4893667;29;20459;-51
2022/05/13 09:35:30;;;;;;;8.27;5.93;;;22.30;67.00;;;;;;4893097;29;20028;-52
2022/05/13 09:37:55;;;;;;;4.75;3.05;;;22.10;65.90;;;;;;4892709;29;20040;-50
2022/05/13 09:40:26;;;;;;;9.57;3.75;;;22.00;66.00;;;;;;4893898;28;20032;-47
2022/05/13 09:42:57;;;;;;;4.93;1.05;;;21.80;65.70;;;;;;4893332;29;20523;-48
2022/05/13 09:45:28;;;;;;;6.88;1.08;;;21.60;67.50;;;;;;4893680;29;20047;-51
2022/05/13 09:48:06;;;;;;;3.40;1.20;;;21.50;65.90;;;;;;4893366;29;20091;-50
2022/05/13 09:50:35;;;;;;;1.13;0.95;;;21.40;65.80;;;;;;4893734;29;20029;-48
2022/05/13 09:53:09;;;;;;;3.78;1.00;;;21.20;65.50;;;;;;4893190;29;20107;-44
2022/05/13 09:55:40;;;;;;;3.08;1.10;;;21.30;66.30;;;;;;4893162;29;20033;-44
2022/05/13 09:58:17;;;;;;;5.95;2.17;;;21.30;66.50;;;;;;4892286;29;20587;-52
2022/05/13 10:00:43;;;;;;;5.40;1.52;;;21.30;66.80;;;;;;4900704;29;20074;-49
2022/05/13 10:03:18;;;;;;;3.10;1.10;;;21.20;66.90;;;;;;4912069;29;20020;-51
2022/05/13 10:05:50;;;;;;;3.03;1.10;;;21.30;68.20;;;;;;4897243;29;20033;-50
2022/05/13 10:08:20;;;;;;;2.38;0.93;;;21.30;66.20;;;;;;4892894;29;20041;-47
2022/05/13 10:14:05;;;;;;;2.17;1.25;;;21.30;66.00;;;;;;4896548;29;20043;-50
2022/05/13 10:16:52;;;;;;;4.57;1.77;;;21.20;67.20;;;;;;4896014;29;20105;-52
2022/05/13 10:19:42;;;;;;;2.45;0.90;;;21.20;66.50;;;;;;4907143;29;20098;-47
2022/05/13 10:22:25;;;;;;;5.45;1.65;;;21.20;66.50;;;;;;4907861;29;20032;-50
2022/05/13 10:25:10;;;;;;;1.70;0.93;;;21.00;67.00;;;;;;4908738;29;20028;-49
2022/05/13 10:27:55;;;;;;;1.23;0.75;;;20.90;67.80;;;;;;4912472;29;20044;-56
2022/05/13 10:30:41;;;;;;;3.30;1.10;;;20.80;67.60;;;;;;4896270;29;20033;-55
2022/05/13 10:33:18;;;;;;;2.72;1.02;;;20.80;67.80;;;;;;4895774;29;20025;-56
2022/05/13 10:35:53;;;;;;;7.93;1.00;;;21.00;69.60;;;;;;4906051;29;20036;-47
2022/05/13 10:38:59;;;;;;;6.07;1.20;;;20.90;68.00;;;;;;4911914;29;20032;-55
2022/05/13 10:41:49;;;;;;;3.05;1.23;;;20.90;67.60;;;;;;4859128;29;20500;-55
2022/05/13 10:44:20;;;;;;;2.75;0.93;;;20.80;67.40;;;;;;4913487;29;20040;-52
2022/05/13 10:46:56;;;;;;;6.20;1.65;;;20.70;66.60;;;;;;4909041;29;20029;-48
2022/05/13 10:49:28;;;;;;;1.65;0.93;;;20.60;68.90;;;;;;4895872;29;20484;-49
2022/05/13 10:52:05;;;;;;;5.20;1.35;;;20.70;69.10;;;;;;4895747;29;20036;-55
2022/05/13 10:54:50;;;;;;;11.82;3.15;;;20.70;67.70;;;;;;4895711;29;20123;-52
2022/05/13 10:57:41;;;;;;;5.63;3.90;;;20.90;69.00;;;;;;4893637;29;20040;-50
2022/05/13 11:00:16;;;;;;;2.75;1.80;;;20.90;68.60;;;;;;4895432;29;20056;-50
2022/05/13 11:03:03;;;;;;;2.72;1.05;;;20.90;66.90;;;;;;4895752;29;20021;-44
2022/05/13 11:05:43;;;;;;;2.42;1.20;;;20.90;68.10;;;;;;4895691;29;20032;-44
2022/05/13 11:08:24;;;;;;;2.00;0.98;;;20.80;67.80;;;;;;4895296;29;20028;-49
2022/05/13 11:11:00;;;;;;;2.90;1.10;;;20.90;68.10;;;;;;4895521;29;20171;-45
2022/05/13 11:13:32;;;;;;;2.35;0.98;;;20.80;66.70;;;;;;4895206;29;20035;-54
2022/05/13 11:16:10;;;;;;;5.28;1.13;;;20.90;67.30;;;;;;4876649;29;20568;-55
2022/05/13 11:18:58;;;;;;;5.90;1.27;;;20.70;66.90;;;;;;4876498;29;20519;-52
2022/05/13 11:21:50;;;;;;;6.93;2.13;;;20.70;68.70;;;;;;4876852;29;20017;-51
2022/05/13 11:27:38;;;;;;;3.38;0.85;;;20.70;68.40;;;;;;4894946;29;20054;-47
2022/05/13 11:30:16;;;;;;;3.10;1.20;;;20.80;68.30;;;;;;4895313;29;20060;-49
2022/05/13 11:32:54;;;;;;;3.20;1.13;;;20.90;68.10;;;;;;4882568;29;20087;-52
2022/05/13 11:35:43;;;;;;;8.13;1.13;;;20.80;67.60;;;;;;4895528;28;20048;-49
2022/05/13 11:38:18;;;;;;;4.00;0.90;;;20.50;67.50;;;;;;4894714;29;20028;-52
2022/05/13 11:40:53;;;;;;;2.42;1.08;;;20.60;69.20;;;;;;4895393;29;20029;-51
2022/05/13 11:43:40;;;;;;;4.85;1.45;;;20.60;69.10;;;;;;4895148;29;20029;-51
2022/05/13 11:46:21;;;;;;;1.55;0.95;;;20.60;69.80;;;;;;4895265;29;20031;-55
2022/05/13 11:48:53;;;;;;;3.38;1.10;;;20.60;66.70;;;;;;4894815;28;20029;-52
2022/05/13 11:51:28;;;;;;;3.53;1.00;;;20.60;68.60;;;;;;4894497;29;20043;-49
2022/05/13 11:54:21;;;;;;;3.35;1.05;;;20.60;68.00;;;;;;4894876;29;20040;-46
2022/05/13 11:56:48;;;;;;;2.15;0.60;;;20.60;68.80;;;;;;4895089;29;20107;-44
2022/05/13 11:59:29;;;;;;;3.83;1.05;;;20.60;68.40;;;;;;4894865;29;20025;-50
2022/05/13 12:02:12;;;;;;;5.03;1.27;;;20.70;68.40;;;;;;4894556;29;20028;-52
2022/05/13 12:05:09;;;;;;;2.70;1.00;;;20.80;69.00;;;;;;4894264;29;20560;-49
2022/05/13 12:07:50;;;;;;;7.40;1.13;;;20.90;68.40;;;;;;4894477;29;20028;-53
2022/05/13 12:10:17;;;;;;;6.75;1.23;;;20.90;69.20;;;;;;4895001;29;20397;-47
2022/05/13 12:13:00;;;;;;;3.22;1.40;;;20.90;67.20;;;;;;4894865;29;20516;-51
2022/05/13 12:15:32;;;;;;;9.52;1.27;;;20.90;67.20;;;;;;4894451;29;20052;-49
2022/05/13 12:18:12;;;;;;;4.85;1.48;;;20.90;66.60;;;;;;4894204;29;20032;-46
2022/05/13 12:21:04;;;;;;;8.75;2.10;;;20.80;67.40;;;;;;4894484;29;20060;-51
2022/05/13 12:23:37;;;;;;;3.67;1.00;;;20.80;67.60;;;;;;4894655;29;20029;-52
2022/05/13 12:26:10;;;;;;;5.35;0.95;;;20.90;67.80;;;;;;4893961;29;20048;-47
2022/05/13 12:29:00;;;;;;;4.40;1.50;;;20.90;67.20;;;;;;4928524;23;20051;-54
2022/05/13 12:32:06;;;;;;;5.20;1.60;;;20.90;68.20;;;;;;4913386;29;20053;-55
2022/05/13 12:37:38;;;;;;;11.93;1.98;;;21.00;68.10;;;;;;4918593;29;20039;-55
2022/05/13 12:40:11;;;;;;;6.75;1.98;;;21.10;68.90;;;;;;4922382;28;20024;-48
2022/05/13 12:42:51;;;;;;;5.07;1.55;;;21.20;68.30;;;;;;4913092;28;20031;-52
2022/05/13 12:45:38;;;;;;;14.10;1.85;;;21.30;68.60;;;;;;4913243;28;20032;-53
2022/05/13 12:48:06;;;;;;;8.75;1.70;;;21.30;68.20;;;;;;4912730;28;20067;-51
2022/05/13 12:50:38;;;;;;;12.45;2.55;;;21.20;67.00;;;;;;4896154;29;20123;-54
2022/05/13 12:53:29;;;;;;;6.03;1.50;;;21.20;67.50;;;;;;4913111;29;20028;-49
2022/05/13 12:55:59;;;;;;;6.05;1.38;;;21.10;67.30;;;;;;4914355;28;20041;-55
2022/05/13 12:58:29;;;;;;;8.05;2.13;;;21.10;67.60;;;;;;4935170;28;20145;-49
2022/05/13 13:00:55;;;;;;;3.28;1.75;;;21.10;66.80;;;;;;4951017;28;20030;-52
2022/05/13 13:03:22;;;;;;;9.77;1.10;;;21.20;66.40;;;;;;4920556;29;20023;-51
2022/05/13 13:06:02;;;;;;;3.92;1.58;;;21.30;65.40;;;;;;4931884;28;20495;-51
2022/05/13 13:08:36;;;;;;;2.30;1.02;;;21.20;65.40;;;;;;4931560;29;20090;-53
2022/05/13 13:11:25;;;;;;;3.88;1.10;;;21.20;65.30;;;;;;4931743;29;20398;-50
2022/05/13 13:14:06;;;;;;;1.50;0.70;;;21.30;65.40;;;;;;4941894;28;20526;-53
2022/05/13 13:16:51;;;;;;;1.75;0.80;;;21.30;65.40;;;;;;4977570;28;20028;-54
2022/05/13 13:19:23;;;;;;;3.90;0.88;;;21.30;65.80;;;;;;4931951;28;20030;-54
2022/05/13 13:21:54;;;;;;;9.55;1.60;;;21.30;66.60;;;;;;4931560;28;20036;-53
2022/05/13 13:24:44;;;;;;;4.07;1.10;;;21.40;67.80;;;;;;4931789;28;20024;-53
2022/05/13 13:27:17;;;;;;;1.35;0.90;;;21.40;65.40;;;;;;4930626;28;20117;-53
2022/05/13 13:29:45;;;;;;;6.68;0.73;;;21.40;66.20;;;;;;4931738;28;20042;-51
2022/05/13 13:32:22;;;;;;;1.42;0.80;;;21.50;65.90;;;;;;4930847;28;20462;-47
2022/05/13 13:34:57;;;;;;;4.60;1.10;;;21.60;65.20;;;;;;4931136;28;20056;-51
2022/05/13 13:37:35;;;;;;;1.48;0.90;;;21.60;65.30;;;;;;4926551;28;20666;-52